sensor_id;sensor_type;location;lat;lon;timestamp;P1;durP1;ratioP1;P2;durP2;ratioP2
29940;SDS011;16801;53.562;10.038;2023-02-19T00:00:09;1.80;;;1.70;;
29940;SDS011;16801;53.562;10.038;2023-02-19T00:03:33;2.57;;;2.37;;
29940;SDS011;16801;53.562;10.038;2023-02-19T00:06:54;2.27;;;1.83;;
29940;SDS011;16801;53.562;10.038;2023-02-19T00:10:15;4.83;;;3.17;;
29940;SDS011;16801;53.562;10.038;2023-02-19T00:13:38;1.83;;;1.73;;
29940;SDS011;16801;53.562;10.038;2023-02-19T00:17:00;3.77;;;2.30;;
29940;SDS011;16801;53.562;10.038;2023-02-19T00:20:21;3.27;;;2.47;;
29940;SDS011;16801;53.562;10.038;2023-02-19T00:23:41;6.93;;;1.80;;
29940;SDS011;16801;53.562;10.038;2023-02-19T00:27:02;2.63;;;2.40;;
29940;SDS011;16801;53.562;10.038;2023-02-19T00:30:25;3.70;;;1.50;;
29940;SDS011;16801;53.562;10.038;2023-02-19T00:33:46;1.30;;;1.20;;
29940;SDS011;16801;53.562;10.038;2023-02-19T00:37:09;3.80;;;2.57;;
29940;SDS011;16801;53.562;10.038;2023-02-19T00:40:30;4.57;;;2.20;;
29940;SDS011;16801;53.562;10.038;2023-02-19T00:43:51;8.30;;;2.20;;
29940;SDS011;16801;53.562;10.038;2023-02-19T00:47:15;2.60;;;1.70;;
29940;SDS011;16801;53.562;10.038;2023-02-19T00:50:36;3.63;;;1.77;;
29940;SDS011;16801;53.562;10.038;2023-02-19T00:53:57;5.90;;;1.60;;
29940;SDS011;16801;53.562;10.038;2023-02-19T00:57:19;3.57;;;1.70;;
29940;SDS011;16801;53.562;10.038;2023-02-19T01:00:40;2.33;;;1.60;;
29940;SDS011;16801;53.562;10.038;2023-02-19T01:04:03;4.20;;;1.87;;
29940;SDS011;16801;53.562;10.038;2023-02-19T01:07:24;2.03;;;1.70;;
29940;SDS011;16801;53.562;10.038;2023-02-19T01:10:45;4.67;;;2.20;;
29940;SDS011;16801;53.562;10.038;2023-02-19T01:14:07;3.20;;;1.63;;
29940;SDS011;16801;53.562;10.038;2023-02-19T01:17:28;1.97;;;1.67;;
29940;SDS011;16801;53.562;10.038;2023-02-19T01:20:50;1.63;;;1.37;;
29940;SDS011;16801;53.562;10.038;2023-02-19T01:24:11;2.47;;;1.60;;
29940;SDS011;16801;53.562;10.038;2023-02-19T01:27:32;2.00;;;1.80;;
29940;SDS011;16801;53.562;10.038;2023-02-19T01:30:53;3.13;;;1.60;;
29940;SDS011;16801;53.562;10.038;2023-02-19T01:34:14;1.77;;;1.67;;
29940;SDS011;16801;53.562;10.038;2023-02-19T01:37:36;3.47;;;2.30;;
29940;SDS011;16801;53.562;10.038;2023-02-19T01:40:57;1.87;;;1.77;;
29940;SDS011;16801;53.562;10.038;2023-02-19T01:48:45;1.50;;;1.40;;
29940;SDS011;16801;53.562;10.038;2023-02-19T01:52:08;2.60;;;1.97;;
29940;SDS011;16801;53.562;10.038;2023-02-19T01:55:34;1.83;;;1.40;;
29940;SDS011;16801;53.562;10.038;2023-02-19T01:58:55;3.70;;;1.60;;
29940;SDS011;16801;53.562;10.038;2023-02-19T02:02:16;3.13;;;1.83;;
29940;SDS011;16801;53.562;10.038;2023-02-19T02:05:44;1.60;;;1.50;;
29940;SDS011;16801;53.562;10.038;2023-02-19T02:09:09;1.43;;;1.33;;
29940;SDS011;16801;53.562;10.038;2023-02-19T02:12:52;1.60;;;1.50;;
29940;SDS011;16801;53.562;10.038;2023-02-19T02:16:21;1.77;;;1.67;;
29940;SDS011;16801;53.562;10.038;2023-02-19T02:19:59;1.17;;;1.07;;
29940;SDS011;16801;53.562;10.038;2023-02-19T02:23:28;1.80;;;1.40;;
29940;SDS011;16801;53.562;10.038;2023-02-19T02:27:05;3.80;;;2.43;;
29940;SDS011;16801;53.562;10.038;2023-02-19T02:30:39;2.53;;;1.67;;
29940;SDS011;16801;53.562;10.038;2023-02-19T02:34:03;3.57;;;1.83;;
29940;SDS011;16801;53.562;10.038;2023-02-19T02:37:31;2.10;;;1.90;;
29940;SDS011;16801;53.562;10.038;2023-02-19T02:40:56;3.87;;;2.13;;
29940;SDS011;16801;53.562;10.038;2023-02-19T02:44:18;2.30;;;1.63;;
29940;SDS011;16801;53.562;10.038;2023-02-19T02:47:40;2.87;;;2.00;;
29940;SDS011;16801;53.562;10.038;2023-02-19T02:51:06;3.40;;;2.40;;
29940;SDS011;16801;53.562;10.038;2023-02-19T02:54:37;1.90;;;1.73;;
29940;SDS011;16801;53.562;10.038;2023-02-19T02:58:18;2.20;;;1.40;;
29940;SDS011;16801;53.562;10.038;2023-02-19T03:01:44;1.70;;;1.20;;
29940;SDS011;16801;53.562;10.038;2023-02-19T03:05:28;1.00;;;1.00;;
29940;SDS011;16801;53.562;10.038;2023-02-19T03:09:08;1.37;;;1.17;;
29940;SDS011;16801;53.562;10.038;2023-02-19T03:12:34;4.77;;;1.77;;
29940;SDS011;16801;53.562;10.038;2023-02-19T03:16:16;2.43;;;1.50;;
29940;SDS011;16801;53.562;10.038;2023-02-19T03:19:57;4.07;;;1.93;;
29940;SDS011;16801;53.562;10.038;2023-02-19T03:23:27;1.63;;;1.50;;
29940;SDS011;16801;53.562;10.038;2023-02-19T03:27:06;2.60;;;2.40;;
29940;SDS011;16801;53.562;10.038;2023-02-19T03:30:34;3.67;;;1.90;;
29940;SDS011;16801;53.562;10.038;2023-02-19T03:33:58;2.13;;;1.57;;
29940;SDS011;16801;53.562;10.038;2023-02-19T03:37:24;2.70;;;2.17;;
29940;SDS011;16801;53.562;10.038;2023-02-19T03:40:53;2.90;;;1.37;;
29940;SDS011;16801;53.562;10.038;2023-02-19T03:44:25;2.30;;;1.30;;
29940;SDS011;16801;53.562;10.038;2023-02-19T03:47:56;4.07;;;1.40;;
29940;SDS011;16801;53.562;10.038;2023-02-19T03:51:29;2.70;;;1.53;;
29940;SDS011;16801;53.562;10.038;2023-02-19T03:54:59;1.87;;;1.77;;
29940;SDS011;16801;53.562;10.038;2023-02-19T03:58:29;5.43;;;2.23;;
29940;SDS011;16801;53.562;10.038;2023-02-19T04:01:58;2.20;;;2.03;;
29940;SDS011;16801;53.562;10.038;2023-02-19T04:05:23;3.23;;;1.77;;
29940;SDS011;16801;53.562;10.038;2023-02-19T04:08:46;6.37;;;2.90;;
29940;SDS011;16801;53.562;10.038;2023-02-19T04:12:11;5.27;;;2.17;;
29940;SDS011;16801;53.562;10.038;2023-02-19T04:15:39;1.93;;;1.83;;
29940;SDS011;16801;53.562;10.038;2023-02-19T04:19:04;2.43;;;2.33;;
29940;SDS011;16801;53.562;10.038;2023-02-19T04:22:29;4.57;;;1.67;;
29940;SDS011;16801;53.562;10.038;2023-02-19T04:25:52;3.10;;;1.97;;
29940;SDS011;16801;53.562;10.038;2023-02-19T04:29:16;1.83;;;1.53;;
29940;SDS011;16801;53.562;10.038;2023-02-19T04:32:38;2.97;;;1.30;;
29940;SDS011;16801;53.562;10.038;2023-02-19T04:35:58;1.40;;;0.80;;
29940;SDS011;16801;53.562;10.038;2023-02-19T04:39:20;3.23;;;1.10;;
29940;SDS011;16801;53.562;10.038;2023-02-19T04:42:41;2.50;;;1.10;;
29940;SDS011;16801;53.562;10.038;2023-02-19T04:46:02;3.47;;;1.27;;
29940;SDS011;16801;53.562;10.038;2023-02-19T04:49:24;2.23;;;1.00;;
29940;SDS011;16801;53.562;10.038;2023-02-19T04:52:45;2.70;;;1.30;;
29940;SDS011;16801;53.562;10.038;2023-02-19T04:56:07;3.37;;;1.50;;
29940;SDS011;16801;53.562;10.038;2023-02-19T04:59:30;6.27;;;1.30;;
29940;SDS011;16801;53.562;10.038;2023-02-19T05:02:51;2.57;;;1.60;;
29940;SDS011;16801;53.562;10.038;2023-02-19T05:06:13;2.77;;;2.30;;
29940;SDS011;16801;53.562;10.038;2023-02-19T05:09:34;3.37;;;1.50;;
29940;SDS011;16801;53.562;10.038;2023-02-19T05:12:55;1.33;;;1.03;;
29940;SDS011;16801;53.562;10.038;2023-02-19T05:16:16;6.13;;;1.63;;
29940;SDS011;16801;53.562;10.038;2023-02-19T05:19:37;1.43;;;1.33;;
29940;SDS011;16801;53.562;10.038;2023-02-19T05:22:59;2.70;;;1.50;;
29940;SDS011;16801;53.562;10.038;2023-02-19T05:26:21;1.93;;;1.80;;
29940;SDS011;16801;53.562;10.038;2023-02-19T05:29:43;1.20;;;1.00;;
29940;SDS011;16801;53.562;10.038;2023-02-19T05:33:04;2.97;;;1.50;;
29940;SDS011;16801;53.562;10.038;2023-02-19T05:36:25;2.70;;;1.67;;
29940;SDS011;16801;53.562;10.038;2023-02-19T05:39:48;1.60;;;1.27;;
29940;SDS011;16801;53.562;10.038;2023-02-19T05:43:09;2.10;;;1.20;;
29940;SDS011;16801;53.562;10.038;2023-02-19T05:46:31;1.23;;;0.93;;
29940;SDS011;16801;53.562;10.038;2023-02-19T05:49:52;1.80;;;1.27;;
29940;SDS011;16801;53.562;10.038;2023-02-19T05:53:13;2.97;;;1.70;;
29940;SDS011;16801;53.562;10.038;2023-02-19T05:56:36;1.97;;;1.87;;
29940;SDS011;16801;53.562;10.038;2023-02-19T05:59:57;3.33;;;1.00;;
29940;SDS011;16801;53.562;10.038;2023-02-19T06:03:18;2.93;;;1.10;;
29940;SDS011;16801;53.562;10.038;2023-02-19T06:06:40;1.23;;;0.87;;
29940;SDS011;16801;53.562;10.038;2023-02-19T06:10:02;4.93;;;2.40;;
29940;SDS011;16801;53.562;10.038;2023-02-19T06:13:25;1.67;;;1.23;;
29940;SDS011;16801;53.562;10.038;2023-02-19T06:16:46;2.30;;;1.40;;
29940;SDS011;16801;53.562;10.038;2023-02-19T06:20:07;0.80;;;0.80;;
29940;SDS011;16801;53.562;10.038;2023-02-19T06:23:29;2.10;;;1.00;;
29940;SDS011;16801;53.562;10.038;2023-02-19T06:26:50;1.83;;;1.17;;
29940;SDS011;16801;53.562;10.038;2023-02-19T06:30:12;0.83;;;0.83;;
29940;SDS011;16801;53.562;10.038;2023-02-19T06:33:33;5.53;;;3.27;;
29940;SDS011;16801;53.562;10.038;2023-02-19T06:36:55;1.27;;;1.17;;
29940;SDS011;16801;53.562;10.038;2023-02-19T06:40:16;1.57;;;1.40;;
29940;SDS011;16801;53.562;10.038;2023-02-19T06:43:37;2.80;;;1.40;;
29940;SDS011;16801;53.562;10.038;2023-02-19T06:46:59;1.67;;;1.37;;
29940;SDS011;16801;53.562;10.038;2023-02-19T06:50:20;1.90;;;1.00;;
29940;SDS011;16801;53.562;10.038;2023-02-19T06:53:41;3.47;;;1.43;;
29940;SDS011;16801;53.562;10.038;2023-02-19T06:57:02;1.50;;;1.40;;
29940;SDS011;16801;53.562;10.038;2023-02-19T07:00:29;2.43;;;1.27;;
29940;SDS011;16801;53.562;10.038;2023-02-19T07:03:52;2.03;;;1.03;;
29940;SDS011;16801;53.562;10.038;2023-02-19T07:07:13;1.70;;;1.10;;
29940;SDS011;16801;53.562;10.038;2023-02-19T07:10:33;3.30;;;1.30;;
29940;SDS011;16801;53.562;10.038;2023-02-19T07:13:54;1.37;;;1.07;;
29940;SDS011;16801;53.562;10.038;2023-02-19T07:17:15;1.60;;;1.50;;
29940;SDS011;16801;53.562;10.038;2023-02-19T07:20:38;7.47;;;1.30;;
29940;SDS011;16801;53.562;10.038;2023-02-19T07:23:59;1.67;;;1.57;;
29940;SDS011;16801;53.562;10.038;2023-02-19T07:27:20;3.80;;;1.90;;
29940;SDS011;16801;53.562;10.038;2023-02-19T07:30:41;1.50;;;1.40;;
29940;SDS011;16801;53.562;10.038;2023-02-19T07:34:02;1.63;;;1.30;;
29940;SDS011;16801;53.562;10.038;2023-02-19T07:37:24;1.47;;;1.30;;
29940;SDS011;16801;53.562;10.038;2023-02-19T07:40:49;4.77;;;3.37;;
29940;SDS011;16801;53.562;10.038;2023-02-19T07:44:10;2.83;;;1.17;;
29940;SDS011;16801;53.562;10.038;2023-02-19T07:47:34;5.83;;;2.63;;
29940;SDS011;16801;53.562;10.038;2023-02-19T07:50:58;2.10;;;1.87;;
29940;SDS011;16801;53.562;10.038;2023-02-19T07:54:20;2.27;;;1.30;;
29940;SDS011;16801;53.562;10.038;2023-02-19T07:57:41;3.27;;;1.40;;
29940;SDS011;16801;53.562;10.038;2023-02-19T08:01:05;8.27;;;1.67;;
29940;SDS011;16801;53.562;10.038;2023-02-19T08:04:27;2.47;;;1.23;;
29940;SDS011;16801;53.562;10.038;2023-02-19T08:07:48;3.47;;;1.57;;
29940;SDS011;16801;53.562;10.038;2023-02-19T08:11:11;4.00;;;1.17;;
29940;SDS011;16801;53.562;10.038;2023-02-19T08:14:49;2.97;;;1.70;;
29940;SDS011;16801;53.562;10.038;2023-02-19T08:18:12;2.73;;;1.77;;
29940;SDS011;16801;53.562;10.038;2023-02-19T08:21:34;3.97;;;3.67;;
29940;SDS011;16801;53.562;10.038;2023-02-19T08:24:56;1.07;;;1.03;;
29940;SDS011;16801;53.562;10.038;2023-02-19T08:28:18;3.70;;;2.80;;
29940;SDS011;16801;53.562;10.038;2023-02-19T08:31:39;7.67;;;3.03;;
29940;SDS011;16801;53.562;10.038;2023-02-19T08:35:00;5.07;;;1.90;;
29940;SDS011;16801;53.562;10.038;2023-02-19T08:38:21;2.83;;;1.60;;
29940;SDS011;16801;53.562;10.038;2023-02-19T08:41:42;1.57;;;1.47;;
29940;SDS011;16801;53.562;10.038;2023-02-19T08:45:05;4.07;;;1.10;;
29940;SDS011;16801;53.562;10.038;2023-02-19T08:48:26;1.93;;;0.90;;
29940;SDS011;16801;53.562;10.038;2023-02-19T08:51:47;1.80;;;1.70;;
29940;SDS011;16801;53.562;10.038;2023-02-19T08:55:08;3.93;;;1.90;;
29940;SDS011;16801;53.562;10.038;2023-02-19T08:58:29;2.57;;;2.40;;
29940;SDS011;16801;53.562;10.038;2023-02-19T09:01:52;2.30;;;1.97;;
29940;SDS011;16801;53.562;10.038;2023-02-19T09:05:13;2.47;;;2.13;;
29940;SDS011;16801;53.562;10.038;2023-02-19T09:08:35;2.10;;;1.40;;
29940;SDS011;16801;53.562;10.038;2023-02-19T09:11:56;1.87;;;1.40;;
29940;SDS011;16801;53.562;10.038;2023-02-19T09:15:17;2.13;;;1.93;;
29940;SDS011;16801;53.562;10.038;2023-02-19T09:18:39;5.10;;;2.53;;
29940;SDS011;16801;53.562;10.038;2023-02-19T09:22:00;3.07;;;2.40;;
29940;SDS011;16801;53.562;10.038;2023-02-19T09:25:21;3.57;;;1.33;;
29940;SDS011;16801;53.562;10.038;2023-02-19T09:28:42;1.70;;;1.10;;
29940;SDS011;16801;53.562;10.038;2023-02-19T09:32:03;3.83;;;1.13;;
29940;SDS011;16801;53.562;10.038;2023-02-19T09:35:25;2.03;;;0.90;;
29940;SDS011;16801;53.562;10.038;2023-02-19T09:38:46;3.40;;;1.27;;
29940;SDS011;16801;53.562;10.038;2023-02-19T09:42:09;1.83;;;0.90;;
29940;SDS011;16801;53.562;10.038;2023-02-19T09:45:34;2.63;;;1.07;;
29940;SDS011;16801;53.562;10.038;2023-02-19T09:48:57;5.80;;;1.37;;
29940;SDS011;16801;53.562;10.038;2023-02-19T09:52:25;1.50;;;0.60;;
29940;SDS011;16801;53.562;10.038;2023-02-19T09:55:51;3.25;;;1.50;;
29940;SDS011;16801;53.562;10.038;2023-02-19T09:59:15;2.30;;;0.88;;
29940;SDS011;16801;53.562;10.038;2023-02-19T10:02:40;0.90;;;0.65;;
29940;SDS011;16801;53.562;10.038;2023-02-19T10:06:01;2.22;;;1.77;;
29940;SDS011;16801;53.562;10.038;2023-02-19T10:09:28;5.20;;;1.17;;
29940;SDS011;16801;53.562;10.038;2023-02-19T10:12:50;2.95;;;1.20;;
29940;SDS011;16801;53.562;10.038;2023-02-19T10:16:14;1.30;;;0.80;;
29940;SDS011;16801;53.562;10.038;2023-02-19T10:19:38;7.28;;;1.17;;
29940;SDS011;16801;53.562;10.038;2023-02-19T10:23:00;1.45;;;0.55;;
29940;SDS011;16801;53.562;10.038;2023-02-19T10:26:23;0.77;;;0.77;;
29940;SDS011;16801;53.562;10.038;2023-02-19T10:29:45;1.38;;;0.90;;
29940;SDS011;16801;53.562;10.038;2023-02-19T10:33:09;0.77;;;0.50;;
29940;SDS011;16801;53.562;10.038;2023-02-19T10:36:31;1.23;;;1.08;;
29940;SDS011;16801;53.562;10.038;2023-02-19T10:39:55;6.55;;;5.07;;
29940;SDS011;16801;53.562;10.038;2023-02-19T10:43:20;9.82;;;8.95;;
29940;SDS011;16801;53.562;10.038;2023-02-19T10:46:50;17.17;;;13.23;;
29940;SDS011;16801;53.562;10.038;2023-02-19T10:50:18;39.22;;;30.10;;
29940;SDS011;16801;53.562;10.038;2023-02-19T10:53:45;16.23;;;14.93;;
29940;SDS011;16801;53.562;10.038;2023-02-19T10:57:22;57.47;;;52.17;;
29940;SDS011;16801;53.562;10.038;2023-02-19T11:00:50;56.25;;;51.13;;
29940;SDS011;16801;53.562;10.038;2023-02-19T11:04:30;95.00;;;85.13;;
29940;SDS011;16801;53.562;10.038;2023-02-19T11:07:55;2.85;;;2.45;;
29940;SDS011;16801;53.562;10.038;2023-02-19T11:11:20;2.60;;;2.00;;
29940;SDS011;16801;53.562;10.038;2023-02-19T11:14:43;1.70;;;0.95;;
29940;SDS011;16801;53.562;10.038;2023-02-19T11:18:13;1.27;;;0.93;;
29940;SDS011;16801;53.562;10.038;2023-02-19T11:21:40;0.50;;;0.45;;
29940;SDS011;16801;53.562;10.038;2023-02-19T11:25:03;0.68;;;0.68;;
29940;SDS011;16801;53.562;10.038;2023-02-19T11:28:28;1.10;;;0.28;;
29940;SDS011;16801;53.562;10.038;2023-02-19T11:31:51;1.33;;;0.30;;
29940;SDS011;16801;53.562;10.038;2023-02-19T11:35:14;0.28;;;0.22;;
29940;SDS011;16801;53.562;10.038;2023-02-19T11:38:37;1.45;;;0.80;;
29940;SDS011;16801;53.562;10.038;2023-02-19T11:45:56;0.98;;;0.98;;
29940;SDS011;16801;53.562;10.038;2023-02-19T11:49:29;2.35;;;1.00;;
29940;SDS011;16801;53.562;10.038;2023-02-19T11:53:08;5.68;;;3.78;;
29940;SDS011;16801;53.562;10.038;2023-02-19T11:56:40;3.28;;;2.33;;
29940;SDS011;16801;53.562;10.038;2023-02-19T12:00:12;2.65;;;1.33;;
29940;SDS011;16801;53.562;10.038;2023-02-19T12:03:48;1.20;;;0.70;;
29940;SDS011;16801;53.562;10.038;2023-02-19T12:07:29;3.78;;;1.63;;
29940;SDS011;16801;53.562;10.038;2023-02-19T12:11:23;1.58;;;1.08;;
29940;SDS011;16801;53.562;10.038;2023-02-19T12:14:55;0.93;;;0.82;;
29940;SDS011;16801;53.562;10.038;2023-02-19T12:18:55;1.48;;;0.93;;
29940;SDS011;16801;53.562;10.038;2023-02-19T12:22:36;3.17;;;1.40;;
29940;SDS011;16801;53.562;10.038;2023-02-19T12:26:04;0.77;;;0.50;;
29940;SDS011;16801;53.562;10.038;2023-02-19T12:29:41;0.70;;;0.65;;
29940;SDS011;16801;53.562;10.038;2023-02-19T12:33:25;0.77;;;0.77;;
29940;SDS011;16801;53.562;10.038;2023-02-19T12:37:07;3.42;;;1.02;;
29940;SDS011;16801;53.562;10.038;2023-02-19T12:40:45;3.53;;;1.23;;
29940;SDS011;16801;53.562;10.038;2023-02-19T12:44:16;2.33;;;1.58;;
29940;SDS011;16801;53.562;10.038;2023-02-19T12:47:45;1.95;;;1.05;;
29940;SDS011;16801;53.562;10.038;2023-02-19T12:51:13;3.25;;;1.50;;
29940;SDS011;16801;53.562;10.038;2023-02-19T12:54:41;1.65;;;1.40;;
29940;SDS011;16801;53.562;10.038;2023-02-19T12:58:06;1.48;;;0.85;;
29940;SDS011;16801;53.562;10.038;2023-02-19T13:01:37;1.48;;;0.57;;
29940;SDS011;16801;53.562;10.038;2023-02-19T13:05:05;1.42;;;1.33;;
29940;SDS011;16801;53.562;10.038;2023-02-19T13:08:34;2.88;;;0.82;;
29940;SDS011;16801;53.562;10.038;2023-02-19T13:12:00;1.15;;;1.05;;
29940;SDS011;16801;53.562;10.038;2023-02-19T13:15:27;2.17;;;1.13;;
29940;SDS011;16801;53.562;10.038;2023-02-19T13:18:54;1.33;;;1.02;;
29940;SDS011;16801;53.562;10.038;2023-02-19T13:22:21;3.03;;;1.17;;
29940;SDS011;16801;53.562;10.038;2023-02-19T13:26:08;4.53;;;1.00;;
29940;SDS011;16801;53.562;10.038;2023-02-19T13:29:40;0.97;;;0.80;;
29940;SDS011;16801;53.562;10.038;2023-02-19T13:33:24;2.43;;;1.33;;
29940;SDS011;16801;53.562;10.038;2023-02-19T13:36:53;0.50;;;0.50;;
29940;SDS011;16801;53.562;10.038;2023-02-19T13:40:23;1.10;;;1.00;;
29940;SDS011;16801;53.562;10.038;2023-02-19T13:43:53;2.40;;;1.23;;
29940;SDS011;16801;53.562;10.038;2023-02-19T13:58:56;2.30;;;0.73;;
29940;SDS011;16801;53.562;10.038;2023-02-19T14:02:23;1.00;;;0.70;;
29940;SDS011;16801;53.562;10.038;2023-02-19T14:05:57;1.13;;;1.00;;
29940;SDS011;16801;53.562;10.038;2023-02-19T14:13:05;1.27;;;0.93;;
29940;SDS011;16801;53.562;10.038;2023-02-19T14:16:47;0.83;;;0.77;;
29940;SDS011;16801;53.562;10.038;2023-02-19T14:24:01;2.17;;;1.40;;
29940;SDS011;16801;53.562;10.038;2023-02-19T14:27:24;1.40;;;0.90;;
29940;SDS011;16801;53.562;10.038;2023-02-19T14:30:47;9.70;;;1.60;;
29940;SDS011;16801;53.562;10.038;2023-02-19T14:34:14;2.10;;;1.43;;
29940;SDS011;16801;53.562;10.038;2023-02-19T14:37:40;0.57;;;0.57;;
29940;SDS011;16801;53.562;10.038;2023-02-19T14:41:04;3.53;;;0.60;;
29940;SDS011;16801;53.562;10.038;2023-02-19T14:44:26;0.77;;;0.67;;
29940;SDS011;16801;53.562;10.038;2023-02-19T14:47:49;2.20;;;1.43;;
29940;SDS011;16801;53.562;10.038;2023-02-19T14:51:14;0.70;;;0.70;;
29940;SDS011;16801;53.562;10.038;2023-02-19T14:54:47;3.60;;;1.10;;
29940;SDS011;16801;53.562;10.038;2023-02-19T14:58:12;0.67;;;0.63;;
29940;SDS011;16801;53.562;10.038;2023-02-19T15:01:38;0.70;;;0.70;;
29940;SDS011;16801;53.562;10.038;2023-02-19T15:04:59;0.87;;;0.80;;
29940;SDS011;16801;53.562;10.038;2023-02-19T15:08:23;2.37;;;1.07;;
29940;SDS011;16801;53.562;10.038;2023-02-19T15:11:48;1.70;;;0.93;;
29940;SDS011;16801;53.562;10.038;2023-02-19T15:15:14;1.60;;;1.03;;
29940;SDS011;16801;53.562;10.038;2023-02-19T15:18:37;3.03;;;2.03;;
29940;SDS011;16801;53.562;10.038;2023-02-19T15:21:58;2.30;;;0.83;;
29940;SDS011;16801;53.562;10.038;2023-02-19T15:25:22;2.23;;;1.77;;
29940;SDS011;16801;53.562;10.038;2023-02-19T15:28:43;3.50;;;1.20;;
29940;SDS011;16801;53.562;10.038;2023-02-19T15:32:12;4.00;;;1.17;;
29940;SDS011;16801;53.562;10.038;2023-02-19T15:39:20;1.33;;;0.90;;
29940;SDS011;16801;53.562;10.038;2023-02-19T15:42:45;1.17;;;0.93;;
29940;SDS011;16801;53.562;10.038;2023-02-19T15:46:08;0.60;;;0.60;;
29940;SDS011;16801;53.562;10.038;2023-02-19T15:49:37;2.90;;;2.07;;
29940;SDS011;16801;53.562;10.038;2023-02-19T15:53:04;2.53;;;1.27;;
29940;SDS011;16801;53.562;10.038;2023-02-19T15:56:31;3.37;;;1.23;;
29940;SDS011;16801;53.562;10.038;2023-02-19T16:00:00;0.90;;;0.80;;
29940;SDS011;16801;53.562;10.038;2023-02-19T16:03:31;2.77;;;1.73;;
29940;SDS011;16801;53.562;10.038;2023-02-19T16:06:53;1.10;;;1.10;;
29940;SDS011;16801;53.562;10.038;2023-02-19T16:10:20;0.70;;;0.53;;
29940;SDS011;16801;53.562;10.038;2023-02-19T16:13:42;0.93;;;0.67;;
29940;SDS011;16801;53.562;10.038;2023-02-19T16:17:05;0.80;;;0.57;;
29940;SDS011;16801;53.562;10.038;2023-02-19T16:20:33;3.33;;;0.80;;
29940;SDS011;16801;53.562;10.038;2023-02-19T16:23:58;0.97;;;0.70;;
29940;SDS011;16801;53.562;10.038;2023-02-19T16:27:26;2.23;;;0.77;;
29940;SDS011;16801;53.562;10.038;2023-02-19T16:30:54;3.13;;;1.93;;
29940;SDS011;16801;53.562;10.038;2023-02-19T16:34:22;5.67;;;3.50;;
29940;SDS011;16801;53.562;10.038;2023-02-19T16:37:55;2.37;;;1.53;;
29940;SDS011;16801;53.562;10.038;2023-02-19T16:41:17;0.83;;;0.80;;
29940;SDS011;16801;53.562;10.038;2023-02-19T16:44:39;2.93;;;1.70;;
29940;SDS011;16801;53.562;10.038;2023-02-19T16:48:01;0.80;;;0.80;;
29940;SDS011;16801;53.562;10.038;2023-02-19T16:51:26;1.87;;;1.10;;
29940;SDS011;16801;53.562;10.038;2023-02-19T16:54:47;2.10;;;1.10;;
29940;SDS011;16801;53.562;10.038;2023-02-19T16:58:08;2.70;;;1.43;;
29940;SDS011;16801;53.562;10.038;2023-02-19T17:01:29;3.83;;;1.73;;
29940;SDS011;16801;53.562;10.038;2023-02-19T17:04:50;3.73;;;1.47;;
29940;SDS011;16801;53.562;10.038;2023-02-19T17:08:21;2.23;;;1.80;;
29940;SDS011;16801;53.562;10.038;2023-02-19T17:11:49;3.97;;;1.77;;
29940;SDS011;16801;53.562;10.038;2023-02-19T17:15:10;3.33;;;1.40;;
29940;SDS011;16801;53.562;10.038;2023-02-19T17:18:32;4.10;;;1.83;;
29940;SDS011;16801;53.562;10.038;2023-02-19T17:21:53;1.90;;;1.70;;
29940;SDS011;16801;53.562;10.038;2023-02-19T17:25:15;2.27;;;1.53;;
29940;SDS011;16801;53.562;10.038;2023-02-19T17:28:36;1.27;;;1.17;;
29940;SDS011;16801;53.562;10.038;2023-02-19T17:31:57;2.37;;;1.83;;
29940;SDS011;16801;53.562;10.038;2023-02-19T17:35:18;5.97;;;1.87;;
29940;SDS011;16801;53.562;10.038;2023-02-19T17:38:38;2.57;;;1.37;;
29940;SDS011;16801;53.562;10.038;2023-02-19T17:42:01;6.30;;;2.43;;
29940;SDS011;16801;53.562;10.038;2023-02-19T17:45:22;1.63;;;1.50;;
29940;SDS011;16801;53.562;10.038;2023-02-19T17:48:43;2.73;;;1.83;;
29940;SDS011;16801;53.562;10.038;2023-02-19T17:52:04;4.23;;;1.23;;
29940;SDS011;16801;53.562;10.038;2023-02-19T17:55:26;2.70;;;1.73;;
29940;SDS011;16801;53.562;10.038;2023-02-19T17:58:48;2.03;;;1.83;;
29940;SDS011;16801;53.562;10.038;2023-02-19T18:02:09;1.90;;;1.80;;
29940;SDS011;16801;53.562;10.038;2023-02-19T18:05:30;3.20;;;2.90;;
29940;SDS011;16801;53.562;10.038;2023-02-19T18:08:51;1.20;;;1.10;;
29940;SDS011;16801;53.562;10.038;2023-02-19T18:12:13;3.37;;;1.30;;
29940;SDS011;16801;53.562;10.038;2023-02-19T18:15:35;1.20;;;1.10;;
29940;SDS011;16801;53.562;10.038;2023-02-19T18:18:56;1.27;;;1.23;;
29940;SDS011;16801;53.562;10.038;2023-02-19T18:22:19;4.73;;;1.53;;
29940;SDS011;16801;53.562;10.038;2023-02-19T18:25:40;1.27;;;1.10;;
29940;SDS011;16801;53.562;10.038;2023-02-19T18:29:01;2.50;;;1.20;;
29940;SDS011;16801;53.562;10.038;2023-02-19T18:32:23;1.93;;;1.70;;
29940;SDS011;16801;53.562;10.038;2023-02-19T18:35:44;2.67;;;1.33;;
29940;SDS011;16801;53.562;10.038;2023-02-19T18:39:08;1.20;;;1.10;;
29940;SDS011;16801;53.562;10.038;2023-02-19T18:42:29;2.30;;;1.17;;
29940;SDS011;16801;53.562;10.038;2023-02-19T18:45:50;1.93;;;1.83;;
29940;SDS011;16801;53.562;10.038;2023-02-19T18:49:12;2.50;;;2.03;;
29940;SDS011;16801;53.562;10.038;2023-02-19T18:52:34;0.97;;;0.80;;
29940;SDS011;16801;53.562;10.038;2023-02-19T18:55:54;3.03;;;1.50;;
29940;SDS011;16801;53.562;10.038;2023-02-19T18:59:17;2.50;;;2.27;;
29940;SDS011;16801;53.562;10.038;2023-02-19T19:02:37;1.07;;;1.03;;
29940;SDS011;16801;53.562;10.038;2023-02-19T19:06:00;1.83;;;1.40;;
29940;SDS011;16801;53.562;10.038;2023-02-19T19:09:21;3.27;;;1.77;;
29940;SDS011;16801;53.562;10.038;2023-02-19T19:12:42;3.47;;;2.27;;
29940;SDS011;16801;53.562;10.038;2023-02-19T19:16:03;1.10;;;1.00;;
29940;SDS011;16801;53.562;10.038;2023-02-19T19:19:24;3.80;;;1.20;;
29940;SDS011;16801;53.562;10.038;2023-02-19T19:22:48;2.10;;;1.93;;
29940;SDS011;16801;53.562;10.038;2023-02-19T19:26:09;1.77;;;1.60;;
29940;SDS011;16801;53.562;10.038;2023-02-19T19:29:30;2.03;;;1.33;;
29940;SDS011;16801;53.562;10.038;2023-02-19T19:32:51;2.43;;;1.50;;
29940;SDS011;16801;53.562;10.038;2023-02-19T19:36:12;4.63;;;1.57;;
29940;SDS011;16801;53.562;10.038;2023-02-19T19:39:36;3.73;;;1.23;;
29940;SDS011;16801;53.562;10.038;2023-02-19T19:42:57;2.93;;;1.30;;
29940;SDS011;16801;53.562;10.038;2023-02-19T19:46:18;2.90;;;1.23;;
29940;SDS011;16801;53.562;10.038;2023-02-19T19:49:39;2.70;;;1.30;;
29940;SDS011;16801;53.562;10.038;2023-02-19T19:53:00;3.27;;;1.60;;
29940;SDS011;16801;53.562;10.038;2023-02-19T19:56:22;1.93;;;1.80;;
29940;SDS011;16801;53.562;10.038;2023-02-19T19:59:45;2.67;;;1.33;;
29940;SDS011;16801;53.562;10.038;2023-02-19T20:03:09;3.37;;;1.73;;
29940;SDS011;16801;53.562;10.038;2023-02-19T20:06:30;1.50;;;1.17;;
29940;SDS011;16801;53.562;10.038;2023-02-19T20:09:51;1.13;;;1.00;;
29940;SDS011;16801;53.562;10.038;2023-02-19T20:13:15;6.40;;;2.10;;
29940;SDS011;16801;53.562;10.038;2023-02-19T20:16:36;4.43;;;1.33;;
29940;SDS011;16801;53.562;10.038;2023-02-19T20:19:58;2.37;;;2.17;;
29940;SDS011;16801;53.562;10.038;2023-02-19T20:23:19;2.27;;;2.17;;
29940;SDS011;16801;53.562;10.038;2023-02-19T20:26:39;2.40;;;1.53;;
29940;SDS011;16801;53.562;10.038;2023-02-19T20:30:02;1.43;;;1.33;;
29940;SDS011;16801;53.562;10.038;2023-02-19T20:33:24;5.67;;;1.80;;
29940;SDS011;16801;53.562;10.038;2023-02-19T20:36:45;6.57;;;1.50;;
29940;SDS011;16801;53.562;10.038;2023-02-19T20:40:09;3.17;;;1.40;;
29940;SDS011;16801;53.562;10.038;2023-02-19T20:43:31;2.57;;;2.27;;